sensor_id;sensor_type;location;lat;lon;timestamp;P1;durP1;ratioP1;P2;durP2;ratioP2
27869;SDS011;15225;50.730;4.244;2023-03-14T17:50:29;8.98;;;2.42;;
27869;SDS011;15225;50.730;4.244;2023-03-14T17:52:55;13.60;;;3.00;;
27869;SDS011;15225;50.730;4.244;2023-03-14T17:55:21;9.73;;;2.45;;
27869;SDS011;15225;50.730;4.244;2023-03-14T17:57:46;7.00;;;2.55;;
27869;SDS011;15225;50.730;4.244;2023-03-14T18:00:12;15.93;;;3.15;;
27869;SDS011;15225;50.730;4.244;2023-03-14T18:02:38;6.30;;;2.58;;
27869;SDS011;15225;50.730;4.244;2023-03-14T18:05:05;10.32;;;3.10;;
27869;SDS011;15225;50.730;4.244;2023-03-14T18:07:32;10.35;;;3.50;;
27869;SDS011;15225;50.730;4.244;2023-03-14T18:10:02;9.75;;;3.42;;
27869;SDS011;15225;50.730;4.244;2023-03-14T18:12:29;13.35;;;4.03;;
27869;SDS011;15225;50.730;4.244;2023-03-14T18:14:54;16.65;;;3.88;;
27869;SDS011;15225;50.730;4.244;2023-03-14T18:17:20;8.35;;;3.25;;
27869;SDS011;15225;50.730;4.244;2023-03-14T18:19:46;11.75;;;3.95;;
27869;SDS011;15225;50.730;4.244;2023-03-14T18:22:11;11.40;;;3.20;;
27869;SDS011;15225;50.730;4.244;2023-03-14T18:24:37;12.27;;;3.50;;
27869;SDS011;15225;50.730;4.244;2023-03-14T18:27:03;10.60;;;2.97;;
27869;SDS011;15225;50.730;4.244;2023-03-14T18:29:29;10.93;;;3.33;;
27869;SDS011;15225;50.730;4.244;2023-03-14T18:31:55;12.27;;;3.42;;
27869;SDS011;15225;50.730;4.244;2023-03-14T18:34:22;14.98;;;3.30;;
27869;SDS011;15225;50.730;4.244;2023-03-14T18:36:48;9.68;;;3.65;;
27869;SDS011;15225;50.730;4.244;2023-03-14T18:39:14;13.77;;;3.20;;
27869;SDS011;15225;50.730;4.244;2023-03-14T18:41:40;12.40;;;3.40;;
27869;SDS011;15225;50.730;4.244;2023-03-14T18:44:06;11.82;;;3.67;;
27869;SDS011;15225;50.730;4.244;2023-03-14T18:46:32;14.60;;;4.22;;
27869;SDS011;15225;50.730;4.244;2023-03-14T18:48:58;10.95;;;3.75;;
27869;SDS011;15225;50.730;4.244;2023-03-14T18:51:28;14.73;;;4.10;;
27869;SDS011;15225;50.730;4.244;2023-03-14T18:53:55;10.07;;;3.67;;
27869;SDS011;15225;50.730;4.244;2023-03-14T18:56:25;9.98;;;3.83;;
27869;SDS011;15225;50.730;4.244;2023-03-14T18:58:52;15.82;;;4.90;;
27869;SDS011;15225;50.730;4.244;2023-03-14T19:01:21;13.13;;;7.72;;
27869;SDS011;15225;50.730;4.244;2023-03-14T19:03:52;19.60;;;6.43;;
27869;SDS011;15225;50.730;4.244;2023-03-14T19:06:18;11.90;;;4.53;;
27869;SDS011;15225;50.730;4.244;2023-03-14T19:08:45;11.43;;;4.85;;
27869;SDS011;15225;50.730;4.244;2023-03-14T19:11:12;17.73;;;5.90;;
27869;SDS011;15225;50.730;4.244;2023-03-14T19:13:38;12.60;;;4.80;;
27869;SDS011;15225;50.730;4.244;2023-03-14T19:16:06;15.60;;;4.93;;
27869;SDS011;15225;50.730;4.244;2023-03-14T19:18:35;15.18;;;5.15;;
27869;SDS011;15225;50.730;4.244;2023-03-14T19:21:11;17.02;;;4.88;;
27869;SDS011;15225;50.730;4.244;2023-03-14T19:23:40;12.52;;;5.57;;
27869;SDS011;15225;50.730;4.244;2023-03-14T19:26:07;18.48;;;5.50;;
27869;SDS011;15225;50.730;4.244;2023-03-14T19:28:33;13.80;;;4.55;;
27869;SDS011;15225;50.730;4.244;2023-03-14T19:31:03;21.13;;;4.40;;
27869;SDS011;15225;50.730;4.244;2023-03-14T19:33:30;9.60;;;3.80;;
27869;SDS011;15225;50.730;4.244;2023-03-14T19:35:56;12.13;;;3.80;;
27869;SDS011;15225;50.730;4.244;2023-03-14T19:38:22;10.65;;;3.70;;
27869;SDS011;15225;50.730;4.244;2023-03-14T19:40:48;11.40;;;4.43;;
27869;SDS011;15225;50.730;4.244;2023-03-14T19:43:16;17.70;;;6.07;;
27869;SDS011;15225;50.730;4.244;2023-03-14T19:45:41;11.10;;;4.65;;
27869;SDS011;15225;50.730;4.244;2023-03-14T19:48:08;19.58;;;6.00;;
27869;SDS011;15225;50.730;4.244;2023-03-14T19:50:35;16.90;;;5.43;;
27869;SDS011;15225;50.730;4.244;2023-03-14T19:53:01;12.68;;;4.97;;
27869;SDS011;15225;50.730;4.244;2023-03-14T19:55:27;17.83;;;5.40;;
27869;SDS011;15225;50.730;4.244;2023-03-14T19:57:53;15.45;;;5.32;;
27869;SDS011;15225;50.730;4.244;2023-03-14T20:00:19;17.45;;;5.63;;
27869;SDS011;15225;50.730;4.244;2023-03-14T20:02:46;14.65;;;5.20;;
27869;SDS011;15225;50.730;4.244;2023-03-14T20:05:15;16.50;;;5.65;;
27869;SDS011;15225;50.730;4.244;2023-03-14T20:07:43;20.67;;;5.53;;
27869;SDS011;15225;50.730;4.244;2023-03-14T20:10:10;20.23;;;5.30;;
27869;SDS011;15225;50.730;4.244;2023-03-14T20:12:40;16.15;;;5.80;;
27869;SDS011;15225;50.730;4.244;2023-03-14T20:15:08;21.75;;;6.60;;
27869;SDS011;15225;50.730;4.244;2023-03-14T20:17:36;15.75;;;5.93;;
27869;SDS011;15225;50.730;4.244;2023-03-14T20:20:04;14.55;;;6.30;;
27869;SDS011;15225;50.730;4.244;2023-03-14T20:22:32;13.52;;;5.93;;
27869;SDS011;15225;50.730;4.244;2023-03-14T20:25:01;18.25;;;5.65;;
27869;SDS011;15225;50.730;4.244;2023-03-14T20:27:29;17.55;;;6.07;;
27869;SDS011;15225;50.730;4.244;2023-03-14T20:29:56;14.23;;;6.63;;
27869;SDS011;15225;50.730;4.244;2023-03-14T20:32:22;17.63;;;6.60;;
27869;SDS011;15225;50.730;4.244;2023-03-14T20:34:48;16.15;;;5.68;;
27869;SDS011;15225;50.730;4.244;2023-03-14T20:37:14;19.67;;;5.47;;
27869;SDS011;15225;50.730;4.244;2023-03-14T20:39:46;15.73;;;5.30;;
27869;SDS011;15225;50.730;4.244;2023-03-14T20:42:11;16.55;;;5.60;;
27869;SDS011;15225;50.730;4.244;2023-03-14T20:44:46;21.77;;;5.75;;
27869;SDS011;15225;50.730;4.244;2023-03-14T20:47:12;10.80;;;4.88;;
27869;SDS011;15225;50.730;4.244;2023-03-14T20:49:39;13.10;;;4.28;;
27869;SDS011;15225;50.730;4.244;2023-03-14T20:52:05;10.50;;;3.78;;
27869;SDS011;15225;50.730;4.244;2023-03-14T20:54:31;6.88;;;2.55;;
27869;SDS011;15225;50.730;4.244;2023-03-14T20:56:57;7.22;;;2.28;;
27869;SDS011;15225;50.730;4.244;2023-03-14T20:59:23;5.75;;;2.40;;
27869;SDS011;15225;50.730;4.244;2023-03-14T21:01:52;8.60;;;2.60;;
27869;SDS011;15225;50.730;4.244;2023-03-14T21:04:37;6.90;;;2.20;;
27869;SDS011;15225;50.730;4.244;2023-03-14T21:07:03;3.55;;;2.38;;
27869;SDS011;15225;50.730;4.244;2023-03-14T21:09:28;6.75;;;2.85;;
27869;SDS011;15225;50.730;4.244;2023-03-14T21:12:02;4.80;;;2.70;;
27869;SDS011;15225;50.730;4.244;2023-03-14T21:14:34;5.10;;;2.85;;
27869;SDS011;15225;50.730;4.244;2023-03-14T21:17:03;9.77;;;3.42;;
27869;SDS011;15225;50.730;4.244;2023-03-14T21:19:31;8.10;;;3.55;;
27869;SDS011;15225;50.730;4.244;2023-03-14T21:22:10;7.93;;;3.40;;
27869;SDS011;15225;50.730;4.244;2023-03-14T21:24:42;9.10;;;4.13;;
27869;SDS011;15225;50.730;4.244;2023-03-14T21:27:09;9.25;;;3.85;;
27869;SDS011;15225;50.730;4.244;2023-03-14T21:29:36;7.93;;;3.42;;
27869;SDS011;15225;50.730;4.244;2023-03-14T21:32:04;9.00;;;3.75;;
27869;SDS011;15225;50.730;4.244;2023-03-14T21:34:30;9.40;;;3.67;;
27869;SDS011;15225;50.730;4.244;2023-03-14T21:36:55;11.25;;;4.25;;
27869;SDS011;15225;50.730;4.244;2023-03-14T21:39:21;12.02;;;5.32;;
27869;SDS011;15225;50.730;4.244;2023-03-14T21:41:47;9.63;;;4.88;;
27869;SDS011;15225;50.730;4.244;2023-03-14T21:44:14;15.18;;;5.78;;
27869;SDS011;15225;50.730;4.244;2023-03-14T21:46:43;11.85;;;4.75;;
27869;SDS011;15225;50.730;4.244;2023-03-14T21:49:13;17.15;;;5.72;;
27869;SDS011;15225;50.730;4.244;2023-03-14T21:51:42;16.05;;;6.25;;
27869;SDS011;15225;50.730;4.244;2023-03-14T21:54:13;11.23;;;5.40;;
27869;SDS011;15225;50.730;4.244;2023-03-14T21:56:41;18.67;;;7.63;;
27869;SDS011;15225;50.730;4.244;2023-03-14T21:59:08;19.42;;;6.68;;
27869;SDS011;15225;50.730;4.244;2023-03-14T22:01:34;17.77;;;6.25;;
27869;SDS011;15225;50.730;4.244;2023-03-14T22:04:00;16.75;;;7.00;;
27869;SDS011;15225;50.730;4.244;2023-03-14T22:06:26;13.52;;;6.32;;
27869;SDS011;15225;50.730;4.244;2023-03-14T22:08:53;16.88;;;5.38;;
27869;SDS011;15225;50.730;4.244;2023-03-14T22:11:22;24.77;;;7.10;;
27869;SDS011;15225;50.730;4.244;2023-03-14T22:13:49;21.45;;;6.28;;
27869;SDS011;15225;50.730;4.244;2023-03-14T22:16:14;14.02;;;5.95;;
27869;SDS011;15225;50.730;4.244;2023-03-14T22:18:41;18.55;;;5.65;;
27869;SDS011;15225;50.730;4.244;2023-03-14T22:21:08;15.32;;;5.97;;
27869;SDS011;15225;50.730;4.244;2023-03-14T22:23:33;16.88;;;5.57;;
27869;SDS011;15225;50.730;4.244;2023-03-14T22:25:59;15.50;;;5.90;;
27869;SDS011;15225;50.730;4.244;2023-03-14T22:28:25;14.30;;;5.95;;
27869;SDS011;15225;50.730;4.244;2023-03-14T22:30:50;15.35;;;5.30;;
27869;SDS011;15225;50.730;4.244;2023-03-14T22:33:17;13.60;;;5.88;;
27869;SDS011;15225;50.730;4.244;2023-03-14T22:35:47;15.18;;;5.38;;
27869;SDS011;15225;50.730;4.244;2023-03-14T22:38:14;13.50;;;6.03;;
27869;SDS011;15225;50.730;4.244;2023-03-14T22:40:42;12.68;;;4.85;;
27869;SDS011;15225;50.730;4.244;2023-03-14T22:43:07;16.65;;;5.43;;
27869;SDS011;15225;50.730;4.244;2023-03-14T22:45:36;12.90;;;5.13;;
27869;SDS011;15225;50.730;4.244;2023-03-14T22:48:01;14.88;;;5.40;;
